createdAt,value
2023-03-30T00:00:58.224Z,188.83
2023-03-30T00:03:27.486Z,185.43
2023-03-30T00:05:56.747Z,184.90
2023-03-30T00:08:28.828Z,187.07
2023-03-30T00:11:03.975Z,190.27
2023-03-30T00:13:32.275Z,181.47
2023-03-30T00:16:00.114Z,182.90
2023-03-30T00:18:27.601Z,180.40
2023-03-30T00:20:54.820Z,177.73
2023-03-30T00:23:22.448Z,184.20
2023-03-30T00:25:49.672Z,187.07
2023-03-30T00:28:16.766Z,183.70
2023-03-30T00:30:43.765Z,189.73
2023-03-30T00:33:11.083Z,182.10
2023-03-30T00:35:38.194Z,183.50
2023-03-30T00:38:05.894Z,188.37
2023-03-30T00:40:36.610Z,187.57
2023-03-30T00:43:07.474Z,180.97
2023-03-30T00:45:37.027Z,184.07
2023-03-30T00:48:19.398Z,173.60
2023-03-30T00:51:13.990Z,174.80
2023-03-30T00:53:48.215Z,178.63
2023-03-30T00:56:20.213Z,177.20
2023-03-30T00:58:47.321Z,177.20
2023-03-30T01:01:18.838Z,174.87
2023-03-30T01:03:48.294Z,177.47
2023-03-30T01:06:24.376Z,182.50
2023-03-30T01:08:53.394Z,180.57
2023-03-30T01:11:21.609Z,190.20
2023-03-30T01:13:55.607Z,184.80
2023-03-30T01:17:02.066Z,189.80
2023-03-30T01:19:48.240Z,183.53
2023-03-30T01:22:24.308Z,175.10
2023-03-30T01:25:10.290Z,176.50
2023-03-30T01:28:11.789Z,176.80
2023-03-30T01:31:25.528Z,178.03
2023-03-30T01:34:33.687Z,181.70
2023-03-30T01:37:42.351Z,180.90
2023-03-30T01:40:13.465Z,181.63
2023-03-30T01:42:53.538Z,182.63
2023-03-30T01:45:36.014Z,177.50
2023-03-30T01:48:14.202Z,183.57
2023-03-30T01:50:56.390Z,183.87
2023-03-30T01:53:34.498Z,179.77
2023-03-30T01:56:14.934Z,190.27
2023-03-30T01:58:48.520Z,180.87
2023-03-30T02:01:17.852Z,185.63
2023-03-30T02:03:52.394Z,183.03
2023-03-30T02:06:38.781Z,179.07
2023-03-30T02:09:11.158Z,177.77
2023-03-30T02:11:43.232Z,180.67
2023-03-30T02:14:13.143Z,179.87
2023-03-30T02:16:47.382Z,179.03
2023-03-30T02:19:15.667Z,181.03
2023-03-30T02:21:43.811Z,184.77
2023-03-30T02:24:25.917Z,180.50
2023-03-30T02:26:55.091Z,181.23
2023-03-30T02:29:22.933Z,181.20
2023-03-30T02:31:54.320Z,178.67
2023-03-30T02:34:30.337Z,181.37
2023-03-30T02:37:30.207Z,175.77
2023-03-30T02:40:32.164Z,177.43
2023-03-30T02:43:56.447Z,182.00
2023-03-30T02:47:02.289Z,176.73
2023-03-30T02:49:43.739Z,181.50
2023-03-30T02:53:02.995Z,187.30
2023-03-30T02:56:00.606Z,186.53
2023-03-30T02:58:54.091Z,182.93
2023-03-30T03:02:04.512Z,187.57
2023-03-30T03:04:34.443Z,213.70
2023-03-30T03:07:21.040Z,192.00
2023-03-30T03:09:48.266Z,198.33
2023-03-30T03:12:15.401Z,168.93
2023-03-30T03:14:43.210Z,184.67
2023-03-30T03:17:13.611Z,174.77
2023-03-30T03:19:44.997Z,182.03
2023-03-30T03:22:13.129Z,180.57
2023-03-30T03:24:41.882Z,181.67
2023-03-30T03:27:21.223Z,180.93
2023-03-30T03:30:05.667Z,177.20
2023-03-30T03:32:39.438Z,179.10
2023-03-30T03:35:07.334Z,178.70
2023-03-30T03:37:35.136Z,184.27
2023-03-30T03:40:05.394Z,182.90
2023-03-30T03:42:33.012Z,182.23
2023-03-30T03:45:08.850Z,182.87
2023-03-30T03:47:38.562Z,185.83
2023-03-30T03:50:09.716Z,181.37
2023-03-30T03:52:37.479Z,180.47
2023-03-30T03:55:05.653Z,178.53
2023-03-30T03:57:32.853Z,178.70
2023-03-30T04:00:00.010Z,181.87
2023-03-30T04:02:27.887Z,183.43
2023-03-30T04:04:55.688Z,190.17
2023-03-30T04:07:25.519Z,186.10
2023-03-30T04:09:52.643Z,183.10
2023-03-30T04:12:42.750Z,184.63
2023-03-30T04:15:29.984Z,178.97
2023-03-30T04:18:09.700Z,171.90
2023-03-30T04:21:12.969Z,180.47
2023-03-30T04:23:49.122Z,177.67
2023-03-30T04:26:19.222Z,181.80
2023-03-30T04:29:06.751Z,185.00
2023-03-30T04:32:02.764Z,180.43
2023-03-30T04:35:06.621Z,180.57
2023-03-30T04:37:52.321Z,183.63
2023-03-30T04:40:36.811Z,185.17
2023-03-30T04:43:21.441Z,187.60
2023-03-30T04:46:02.044Z,185.50
2023-03-30T04:48:47.583Z,190.13
2023-03-30T04:51:40.917Z,188.83
2023-03-30T04:54:26.250Z,183.10
2023-03-30T04:56:56.264Z,185.67
2023-03-30T04:59:43.994Z,183.80
2023-03-30T05:02:26.336Z,186.37
2023-03-30T05:05:11.863Z,191.20
2023-03-30T05:07:59.597Z,181.37
2023-03-30T05:10:38.671Z,185.47
2023-03-30T05:13:29.108Z,179.23
2023-03-30T05:16:14.623Z,182.43
2023-03-30T05:19:04.387Z,189.23
2023-03-30T05:22:03.586Z,183.73
2023-03-30T05:24:52.125Z,190.07
2023-03-30T05:27:29.729Z,186.03
2023-03-30T05:30:15.689Z,184.20
2023-03-30T05:33:02.677Z,185.50
2023-03-30T05:35:57.348Z,184.57
2023-03-30T05:38:37.918Z,188.80
2023-03-30T05:41:23.202Z,187.60
2023-03-30T05:44:03.656Z,189.70
2023-03-30T05:46:51.025Z,189.60
2023-03-30T05:49:36.595Z,184.90
2023-03-30T05:52:19.029Z,185.50
2023-03-30T05:55:05.318Z,188.73
2023-03-30T05:57:52.576Z,180.50
2023-03-30T06:00:41.634Z,181.93
2023-03-30T06:03:18.441Z,183.67
2023-03-30T06:05:46.610Z,189.33
2023-03-30T06:08:13.680Z,185.37
2023-03-30T06:10:42.506Z,185.30
2023-03-30T06:13:11.932Z,191.23
2023-03-30T06:15:47.373Z,204.57
2023-03-30T06:18:19.532Z,194.57
2023-03-30T06:20:55.810Z,187.00
2023-03-30T06:23:24.035Z,189.67
2023-03-30T06:25:54.599Z,189.60
2023-03-30T06:28:27.614Z,191.60
2023-03-30T06:30:55.078Z,189.50
2023-03-30T06:33:25.952Z,188.37
2023-03-30T06:35:58.450Z,193.33
2023-03-30T06:38:25.671Z,193.17
2023-03-30T06:40:55.048Z,189.30
2023-03-30T06:43:26.011Z,182.87
2023-03-30T06:46:01.987Z,184.57
2023-03-30T06:48:29.065Z,192.33
2023-03-30T06:51:14.571Z,193.10
2023-03-30T06:53:42.726Z,201.47
2023-03-30T06:56:10.022Z,188.27
2023-03-30T06:58:45.720Z,188.57
2023-03-30T07:01:16.043Z,187.80
2023-03-30T07:04:03.460Z,193.03
2023-03-30T07:07:06.030Z,188.73
2023-03-30T07:09:33.737Z,190.00
2023-03-30T07:12:00.978Z,194.53
2023-03-30T07:14:28.148Z,198.73
2023-03-30T07:16:55.283Z,192.40
2023-03-30T07:19:22.334Z,190.90
2023-03-30T07:21:49.333Z,197.57
2023-03-30T07:24:18.754Z,195.77
2023-03-30T07:26:46.324Z,192.60
2023-03-30T07:29:15.406Z,196.03
2023-03-30T07:31:45.450Z,190.53
2023-03-30T07:34:17.291Z,191.37
2023-03-30T07:36:50.466Z,194.30
2023-03-30T07:39:18.534Z,188.90
2023-03-30T07:41:46.640Z,192.10
2023-03-30T07:44:14.182Z,194.87
2023-03-30T07:46:41.357Z,196.50
2023-03-30T07:49:13.959Z,196.10
2023-03-30T07:51:41.229Z,198.00
2023-03-30T07:54:28.477Z,189.03
2023-03-30T07:57:04.604Z,198.43
2023-03-30T07:59:33.074Z,194.90
2023-03-30T08:02:13.404Z,204.03
2023-03-30T08:04:50.545Z,196.00
2023-03-30T08:07:24.253Z,192.87
2023-03-30T08:09:56.091Z,196.03
2023-03-30T08:12:23.054Z,194.70
2023-03-30T08:14:49.991Z,196.97
2023-03-30T08:17:16.979Z,197.60
2023-03-30T08:19:43.933Z,198.13
2023-03-30T08:22:12.018Z,192.27
2023-03-30T08:24:38.954Z,203.53
2023-03-30T08:27:06.011Z,202.63
2023-03-30T08:29:33.698Z,199.70
2023-03-30T08:32:00.750Z,197.23
2023-03-30T08:34:27.768Z,198.70
2023-03-30T08:36:54.867Z,199.17
2023-03-30T08:39:21.978Z,202.13
2023-03-30T08:42:26.558Z,199.47
2023-03-30T08:44:57.015Z,196.27
2023-03-30T08:47:34.036Z,196.07
2023-03-30T08:50:35.079Z,196.40
2023-03-30T08:53:05.006Z,195.87
2023-03-30T08:55:50.628Z,201.23
2023-03-30T08:58:36.147Z,194.57
2023-03-30T09:01:18.791Z,196.53
2023-03-30T09:04:07.586Z,198.13
2023-03-30T09:06:50.992Z,195.67
2023-03-30T09:09:21.732Z,200.87
2023-03-30T09:11:57.028Z,199.00
2023-03-30T09:14:41.711Z,195.03
2023-03-30T09:17:39.847Z,198.67
2023-03-30T09:20:13.755Z,198.40
2023-03-30T09:22:43.657Z,203.17
2023-03-30T09:25:18.255Z,200.27
2023-03-30T09:27:47.972Z,201.73
2023-03-30T09:30:26.531Z,194.17
2023-03-30T09:33:13.811Z,195.87
2023-03-30T09:35:44.808Z,204.10
2023-03-30T09:38:13.454Z,203.20
2023-03-30T09:41:11.410Z,198.47
2023-03-30T09:43:46.124Z,199.73
2023-03-30T09:46:15.379Z,197.83
2023-03-30T09:48:48.359Z,201.97
2023-03-30T09:51:18.305Z,196.17
2023-03-30T09:53:48.124Z,203.50
2023-03-30T09:56:35.325Z,197.80
2023-03-30T09:59:20.296Z,200.60
2023-03-30T10:01:47.312Z,199.50
2023-03-30T10:04:16.432Z,205.57
2023-03-30T10:06:49.738Z,199.80
2023-03-30T10:09:21.791Z,206.23
2023-03-30T10:11:51.462Z,206.63
2023-03-30T10:14:37.967Z,204.07
2023-03-30T10:17:05.891Z,200.30
2023-03-30T10:19:38.958Z,203.30
2023-03-30T10:22:18.158Z,204.10
2023-03-30T10:24:57.017Z,199.67
2023-03-30T10:27:34.490Z,206.87
2023-03-30T10:30:11.359Z,205.87
2023-03-30T10:32:38.822Z,201.10
2023-03-30T10:35:10.509Z,204.30
2023-03-30T10:37:45.023Z,209.10
2023-03-30T10:40:18.023Z,202.30
2023-03-30T10:42:47.224Z,204.73
2023-03-30T10:45:21.217Z,207.60
2023-03-30T10:48:12.540Z,202.37
2023-03-30T10:51:08.752Z,204.43
2023-03-30T10:54:00.327Z,23.88
2023-03-30T10:56:39.131Z,21.23
2023-03-30T10:59:24.156Z,17.90
2023-03-30T11:02:31.380Z,18.67
2023-03-30T11:05:15.833Z,22.70
2023-03-30T11:08:02.469Z,17.45
2023-03-30T11:10:36.900Z,18.42
2023-03-30T11:13:19.162Z,17.35
2023-03-30T11:16:10.219Z,19.27
2023-03-30T11:19:10.643Z,17.85
2023-03-30T11:21:51.733Z,17.65
2023-03-30T11:24:22.435Z,17.83
2023-03-30T11:27:11.028Z,18.15
2023-03-30T11:30:01.073Z,18.30
2023-03-30T11:32:36.148Z,16.95
2023-03-30T11:35:21.157Z,20.55
2023-03-30T11:38:19.857Z,19.17
2023-03-30T11:40:57.248Z,21.58
2023-03-30T11:43:30.898Z,17.48
2023-03-30T11:46:17.987Z,17.63
2023-03-30T11:49:28.416Z,15.70
2023-03-30T11:52:29.647Z,18.92
2023-03-30T11:55:24.979Z,20.42
2023-03-30T11:58:14.679Z,18.35
2023-03-30T12:00:55.091Z,19.17
2023-03-30T12:03:47.000Z,17.02
2023-03-30T12:06:38.748Z,16.73
2023-03-30T12:09:34.858Z,19.02
2023-03-30T12:12:18.434Z,17.80
2023-03-30T12:15:05.418Z,18.25
2023-03-30T12:17:37.829Z,14.48
2023-03-30T12:20:16.641Z,14.07
2023-03-30T12:23:03.209Z,16.00
2023-03-30T12:26:01.331Z,12.98
2023-03-30T12:31:18.274Z,16.20
2023-03-30T12:33:50.936Z,16.25
2023-03-30T12:36:40.840Z,18.15
2023-03-30T12:39:31.305Z,14.70
2023-03-30T12:42:09.454Z,17.17
2023-03-30T12:44:45.374Z,14.85
2023-03-30T12:47:40.253Z,16.23
2023-03-30T12:50:35.164Z,18.88
2023-03-30T12:54:01.406Z,16.38
2023-03-30T12:56:35.129Z,14.90
2023-03-30T12:59:39.716Z,12.70
2023-03-30T13:03:09.587Z,18.50
2023-03-30T13:05:43.350Z,14.18
2023-03-30T13:08:23.731Z,14.00
2023-03-30T13:10:50.878Z,13.55
2023-03-30T13:14:20.653Z,10.43
2023-03-30T13:16:50.759Z,13.07
2023-03-30T13:19:28.519Z,14.18
2023-03-30T13:21:58.449Z,10.35
2023-03-30T13:24:31.456Z,10.27
2023-03-30T13:27:17.043Z,9.43
2023-03-30T13:30:02.505Z,14.43
2023-03-30T13:32:57.750Z,9.73
2023-03-30T13:35:58.780Z,7.45
2023-03-30T13:39:29.574Z,11.88
2023-03-30T13:42:49.840Z,12.90
2023-03-30T13:45:40.228Z,10.18
2023-03-30T13:48:47.418Z,9.77
2023-03-30T13:51:19.916Z,8.50
2023-03-30T13:54:01.916Z,7.60
2023-03-30T13:56:35.281Z,9.27
2023-03-30T13:59:17.082Z,10.45
2023-03-30T14:01:51.095Z,7.70
2023-03-30T14:04:18.176Z,9.65
2023-03-30T14:06:49.785Z,13.23
2023-03-30T14:09:28.704Z,12.82
2023-03-30T14:12:04.749Z,13.73
2023-03-30T14:14:38.747Z,7.47
2023-03-30T14:17:24.432Z,11.90
2023-03-30T14:20:26.517Z,11.02
2023-03-30T14:22:55.664Z,11.80
2023-03-30T14:25:29.988Z,9.43
2023-03-30T14:28:02.517Z,12.48
2023-03-30T14:30:30.724Z,12.20
2023-03-30T14:33:09.289Z,11.38
2023-03-30T14:35:56.661Z,11.27
2023-03-30T14:38:26.235Z,10.23
2023-03-30T14:40:54.663Z,11.23
2023-03-30T14:43:25.718Z,12.13
2023-03-30T14:45:56.655Z,10.25
2023-03-30T14:48:37.469Z,8.80
2023-03-30T14:51:27.500Z,9.50
2023-03-30T14:53:55.556Z,9.32
2023-03-30T14:56:24.074Z,13.30
2023-03-30T14:58:52.420Z,9.40
2023-03-30T15:01:31.521Z,12.15
2023-03-30T15:04:04.780Z,19.42
2023-03-30T15:06:32.671Z,18.77
2023-03-30T15:09:09.867Z,26.42
2023-03-30T15:11:39.620Z,18.08
2023-03-30T15:14:09.817Z,12.27
2023-03-30T15:16:38.201Z,13.52
2023-03-30T15:19:32.957Z,18.40
2023-03-30T15:22:18.321Z,11.30
2023-03-30T15:24:45.487Z,13.52
2023-03-30T15:27:15.898Z,17.58
2023-03-30T15:29:44.871Z,15.63
2023-03-30T15:32:42.106Z,12.93
2023-03-30T15:35:27.706Z,12.88
2023-03-30T15:38:01.549Z,12.32
2023-03-30T15:40:39.443Z,31.15
2023-03-30T15:43:30.053Z,25.35
2023-03-30T15:46:04.470Z,41.42
2023-03-30T15:48:56.920Z,30.33
2023-03-30T15:51:37.928Z,17.63
2023-03-30T15:54:15.522Z,18.70
2023-03-30T15:57:08.455Z,16.50
2023-03-30T15:59:45.287Z,18.15
2023-03-30T16:02:17.643Z,17.85
2023-03-30T16:04:45.290Z,18.17
2023-03-30T16:07:21.762Z,16.42
2023-03-30T16:09:49.211Z,18.35
2023-03-30T16:12:21.183Z,16.52
2023-03-30T16:14:48.867Z,19.00
2023-03-30T16:17:15.998Z,15.85
2023-03-30T16:19:43.574Z,18.17
2023-03-30T16:22:12.450Z,22.52
2023-03-30T16:24:40.928Z,18.45
2023-03-30T16:27:10.422Z,19.52
2023-03-30T16:29:37.527Z,19.60
2023-03-30T16:32:05.066Z,20.27
2023-03-30T16:34:32.180Z,22.20
2023-03-30T16:36:59.172Z,24.10
2023-03-30T16:39:28.979Z,19.58
2023-03-30T16:41:56.517Z,27.15
2023-03-30T16:44:24.885Z,19.05
2023-03-30T16:46:52.616Z,19.52
2023-03-30T16:49:24.203Z,19.08
2023-03-30T16:51:54.419Z,19.77
2023-03-30T16:54:31.175Z,21.88
2023-03-30T16:57:01.474Z,19.75
2023-03-30T16:59:31.050Z,23.10
2023-03-30T17:01:59.225Z,22.52
2023-03-30T17:04:26.750Z,18.48
2023-03-30T17:06:54.619Z,21.50
2023-03-30T17:09:21.769Z,22.30
2023-03-30T17:11:49.420Z,25.17
2023-03-30T17:14:17.134Z,20.00
2023-03-30T17:16:44.129Z,24.13
2023-03-30T17:19:13.726Z,30.45
2023-03-30T17:21:43.432Z,33.85
2023-03-30T17:24:12.506Z,45.30
2023-03-30T17:26:40.096Z,46.92
2023-03-30T17:29:07.181Z,29.98
2023-03-30T17:31:34.222Z,29.88
2023-03-30T17:34:01.384Z,27.38
2023-03-30T17:36:29.007Z,28.90
2023-03-30T17:38:56.644Z,28.45
2023-03-30T17:41:23.977Z,34.33
2023-03-30T17:43:51.531Z,36.28
2023-03-30T17:46:20.214Z,44.65
2023-03-30T17:48:47.951Z,46.28
2023-03-30T17:51:14.891Z,42.67
2023-03-30T17:53:41.886Z,57.95
2023-03-30T17:56:13.133Z,56.22
2023-03-30T17:58:40.412Z,45.60
2023-03-30T18:01:09.398Z,38.00
2023-03-30T18:03:39.070Z,36.95
2023-03-30T18:06:07.166Z,33.78
2023-03-30T18:08:34.484Z,35.92
2023-03-30T18:11:01.900Z,37.72
2023-03-30T18:13:30.712Z,33.80
2023-03-30T18:16:00.060Z,35.95
2023-03-30T18:18:30.220Z,32.83
2023-03-30T18:21:03.760Z,34.65
2023-03-30T18:23:33.893Z,29.63
2023-03-30T18:26:01.898Z,34.85
2023-03-30T18:28:31.354Z,29.77
2023-03-30T18:31:00.635Z,38.33
2023-03-30T18:33:28.335Z,30.80
2023-03-30T18:35:59.559Z,23.83
2023-03-30T18:38:29.294Z,26.55
2023-03-30T18:40:58.092Z,30.05
2023-03-30T18:43:28.521Z,25.10
2023-03-30T18:46:02.902Z,28.30
2023-03-30T18:48:30.585Z,25.00
2023-03-30T18:50:58.095Z,25.15
2023-03-30T18:53:27.931Z,30.65
2023-03-30T18:55:58.546Z,29.58
2023-03-30T18:58:33.516Z,24.73
2023-03-30T19:01:01.299Z,36.45
2023-03-30T19:03:30.107Z,26.25
2023-03-30T19:05:57.297Z,31.73
2023-03-30T19:08:25.990Z,24.65
2023-03-30T19:10:57.088Z,39.75
2023-03-30T19:13:26.592Z,51.95
2023-03-30T19:15:54.601Z,26.60
2023-03-30T19:18:22.233Z,28.58
2023-03-30T19:20:51.523Z,30.83
2023-03-30T19:23:21.507Z,29.38
2023-03-30T19:25:48.958Z,33.08
2023-03-30T19:28:16.485Z,32.38
2023-03-30T19:30:43.979Z,33.13
2023-03-30T19:33:16.289Z,27.92
2023-03-30T19:35:44.898Z,26.25
2023-03-30T19:38:13.579Z,26.10
2023-03-30T19:40:41.371Z,28.45
2023-03-30T19:43:09.349Z,22.55
2023-03-30T19:45:36.548Z,25.17
2023-03-30T19:48:04.054Z,24.45
2023-03-30T19:50:31.682Z,24.17
2023-03-30T19:52:59.359Z,25.83
2023-03-30T19:55:27.093Z,31.45
2023-03-30T19:57:54.237Z,25.80
2023-03-30T20:00:22.643Z,24.38
2023-03-30T20:02:53.019Z,34.00
2023-03-30T20:05:22.737Z,25.42
2023-03-30T20:07:50.486Z,28.00
2023-03-30T20:10:24.592Z,27.55
2023-03-30T20:12:53.070Z,30.95
2023-03-30T20:15:22.636Z,28.38
2023-03-30T20:17:49.722Z,22.95
2023-03-30T20:20:22.651Z,23.77
2023-03-30T20:22:53.319Z,25.38
2023-03-30T20:25:22.010Z,25.02
2023-03-30T20:27:49.354Z,23.80
2023-03-30T20:30:16.984Z,36.08
2023-03-30T20:32:45.202Z,35.33
2023-03-30T20:35:16.342Z,32.42
2023-03-30T20:37:43.277Z,28.95
2023-03-30T20:40:12.017Z,26.02
2023-03-30T20:42:44.246Z,24.85
2023-03-30T20:45:13.849Z,25.00
2023-03-30T20:47:40.895Z,27.45
2023-03-30T20:50:08.350Z,20.77
2023-03-30T20:52:35.311Z,19.10
2023-03-30T20:55:02.364Z,22.98
2023-03-30T20:57:29.353Z,22.70
2023-03-30T20:59:56.310Z,24.50
2023-03-30T21:02:23.262Z,27.20
2023-03-30T21:04:50.427Z,30.65
2023-03-30T21:07:17.927Z,26.90
2023-03-30T21:09:45.878Z,27.08
2023-03-30T21:12:13.012Z,31.52
2023-03-30T21:14:39.994Z,24.55
2023-03-30T21:17:07.168Z,22.52
2023-03-30T21:19:34.156Z,22.88
2023-03-30T21:22:01.238Z,20.13
2023-03-30T21:24:29.026Z,16.95
2023-03-30T21:26:56.573Z,17.05
2023-03-30T21:29:23.688Z,17.20
2023-03-30T21:31:50.941Z,20.00
2023-03-30T21:34:18.807Z,14.13
2023-03-30T21:36:46.544Z,16.88
2023-03-30T21:39:13.905Z,12.45
2023-03-30T21:41:40.925Z,15.15
2023-03-30T21:44:08.154Z,15.02
2023-03-30T21:46:35.277Z,14.50
2023-03-30T21:49:02.436Z,14.35
2023-03-30T21:51:31.496Z,11.43
2023-03-30T21:53:59.165Z,16.23
2023-03-30T21:56:29.196Z,12.93
2023-03-30T21:58:57.413Z,16.52
2023-03-30T22:01:25.368Z,11.13
2023-03-30T22:03:53.917Z,10.20
2023-03-30T22:06:22.309Z,10.82
2023-03-30T22:08:50.659Z,14.70
2023-03-30T22:11:27.075Z,13.50
2023-03-30T22:13:55.234Z,10.98
2023-03-30T22:16:32.222Z,11.23
2023-03-30T22:18:59.392Z,11.60
2023-03-30T22:21:35.067Z,15.63
2023-03-30T22:24:04.570Z,13.57
2023-03-30T22:26:31.767Z,12.35
2023-03-30T22:28:58.889Z,11.27
2023-03-30T22:31:26.664Z,10.95
2023-03-30T22:33:54.943Z,10.82
2023-03-30T22:36:30.020Z,12.90
2023-03-30T22:38:59.269Z,10.95
2023-03-30T22:41:26.502Z,19.77
2023-03-30T22:43:56.190Z,17.73
2023-03-30T22:46:26.013Z,14.10
2023-03-30T22:48:55.442Z,14.75
2023-03-30T22:51:26.359Z,13.88
2023-03-30T22:53:59.308Z,13.32
2023-03-30T22:56:30.297Z,12.63
2023-03-30T22:58:59.826Z,14.50
2023-03-30T23:01:29.228Z,15.35
2023-03-30T23:03:59.443Z,16.33
2023-03-30T23:06:26.853Z,14.65
2023-03-30T23:08:54.529Z,14.50
2023-03-30T23:11:21.638Z,17.42
2023-03-30T23:13:49.591Z,14.20
2023-03-30T23:16:16.567Z,13.45
2023-03-30T23:18:43.577Z,16.05
2023-03-30T23:21:11.175Z,14.98
2023-03-30T23:23:38.793Z,15.93
2023-03-30T23:26:09.687Z,16.67
2023-03-30T23:28:39.702Z,16.50
2023-03-30T23:31:12.657Z,15.60
2023-03-30T23:33:41.479Z,17.65
2023-03-30T23:36:10.016Z,14.55
2023-03-30T23:38:37.681Z,15.25
2023-03-30T23:41:06.273Z,14.10
2023-03-30T23:43:33.447Z,15.40
2023-03-30T23:46:00.425Z,16.42
2023-03-30T23:48:27.469Z,16.60
2023-03-30T23:50:56.533Z,14.82
2023-03-30T23:53:25.064Z,14.57
2023-03-30T23:55:52.656Z,15.43
2023-03-30T23:58:19.952Z,12.88
